createdAt,value
2022-12-23T00:01:52.688Z,17.80
2022-12-23T00:04:45.065Z,18.95
2022-12-23T00:07:12.144Z,21.25
2022-12-23T00:09:38.972Z,21.05
2022-12-23T00:12:06.325Z,17.75
2022-12-23T00:14:33.055Z,21.40
2022-12-23T00:17:01.271Z,24.10
2022-12-23T00:19:29.072Z,18.95
2022-12-23T00:21:55.963Z,20.00
2022-12-23T00:24:22.944Z,18.98
2022-12-23T00:26:49.818Z,20.33
2022-12-23T00:29:16.875Z,17.52
2022-12-23T00:31:43.630Z,20.85
2022-12-23T00:34:12.458Z,19.00
2022-12-23T00:36:39.548Z,18.17
2022-12-23T00:39:11.546Z,19.77
2022-12-23T00:41:38.809Z,21.40
2022-12-23T00:44:05.664Z,18.85
2022-12-23T00:46:32.837Z,22.75
2022-12-23T00:48:59.773Z,20.45
2022-12-23T00:51:27.886Z,24.38
2022-12-23T00:53:55.041Z,20.70
2022-12-23T00:56:21.795Z,21.95
2022-12-23T00:58:48.954Z,18.70
2022-12-23T01:01:15.927Z,20.58
2022-12-23T01:03:42.739Z,18.02
2022-12-23T01:06:09.885Z,20.30
2022-12-23T01:08:38.607Z,23.95
2022-12-23T01:11:08.088Z,20.65
2022-12-23T01:13:35.798Z,18.35
2022-12-23T01:16:04.579Z,21.73
2022-12-23T01:18:31.711Z,20.35
2022-12-23T01:21:02.320Z,20.48
2022-12-23T01:23:29.333Z,20.77
2022-12-23T01:25:59.231Z,21.95
2022-12-23T01:28:28.028Z,19.70
2022-12-23T01:30:54.853Z,21.30
2022-12-23T01:33:21.812Z,21.45
2022-12-23T01:35:48.937Z,20.42
2022-12-23T01:38:16.032Z,23.60
2022-12-23T01:40:45.311Z,21.35
2022-12-23T01:43:17.462Z,24.70
2022-12-23T01:45:44.437Z,24.05
2022-12-23T01:48:17.443Z,23.52
2022-12-23T01:50:51.275Z,21.73
2022-12-23T01:53:25.323Z,25.35
2022-12-23T01:55:59.034Z,21.90
2022-12-23T01:58:33.094Z,24.48
2022-12-23T02:01:01.244Z,23.30
2022-12-23T02:03:57.712Z,23.48
2022-12-23T02:06:28.958Z,23.15
2022-12-23T02:08:55.857Z,22.33
2022-12-23T02:11:50.748Z,24.70
2022-12-23T02:14:38.762Z,25.92
2022-12-23T02:17:18.517Z,21.58
2022-12-23T02:20:29.160Z,24.10
2022-12-23T02:23:37.159Z,23.85
2022-12-23T02:26:33.964Z,24.13
2022-12-23T02:29:37.033Z,25.27
2022-12-23T02:32:15.679Z,23.60
2022-12-23T02:34:52.352Z,29.42
2022-12-23T02:37:25.325Z,25.38
2022-12-23T02:40:02.728Z,24.65
2022-12-23T02:42:36.635Z,25.00
2022-12-23T02:45:13.110Z,23.20
2022-12-23T02:47:46.727Z,22.95
2022-12-23T02:50:20.784Z,19.00
2022-12-23T02:52:50.726Z,22.63
2022-12-23T02:55:24.052Z,23.58
2022-12-23T02:58:01.925Z,22.17
2022-12-23T03:00:30.631Z,25.45
2022-12-23T03:02:59.304Z,25.67
2022-12-23T03:05:30.146Z,22.38
2022-12-23T03:08:02.697Z,25.65
2022-12-23T03:13:21.101Z,28.75
2022-12-23T03:16:05.513Z,25.80
2022-12-23T03:18:51.517Z,24.33
2022-12-23T03:21:30.555Z,22.38
2022-12-23T03:24:11.517Z,28.65
2022-12-23T03:26:48.911Z,24.67
2022-12-23T03:29:26.201Z,25.23
2022-12-23T03:31:57.637Z,24.58
2022-12-23T03:34:34.137Z,26.38
2022-12-23T03:37:05.943Z,24.27
2022-12-23T03:39:40.450Z,28.10
2022-12-23T03:42:16.096Z,25.88
2022-12-23T03:45:19.172Z,25.15
2022-12-23T03:47:43.111Z,25.38
2022-12-23T03:50:16.719Z,26.40
2022-12-23T03:52:51.862Z,26.13
2022-12-23T03:55:26.600Z,25.25
2022-12-23T03:58:07.469Z,23.73
2022-12-23T04:00:44.513Z,28.90
2022-12-23T04:03:21.836Z,27.15
2022-12-23T04:06:01.670Z,27.40
2022-12-23T04:08:34.444Z,29.65
2022-12-23T04:11:03.104Z,30.73
2022-12-23T04:13:30.858Z,25.17
2022-12-23T04:15:58.815Z,25.63
2022-12-23T04:18:26.084Z,29.35
2022-12-23T04:20:54.525Z,25.30
2022-12-23T04:23:21.499Z,26.08
2022-12-23T04:25:48.528Z,27.00
2022-12-23T04:28:16.117Z,27.55
2022-12-23T04:30:42.936Z,28.05
2022-12-23T04:33:11.641Z,29.48
2022-12-23T04:35:38.938Z,23.48
2022-12-23T04:38:07.199Z,28.00
2022-12-23T04:40:34.522Z,26.40
2022-12-23T04:43:01.412Z,26.73
2022-12-23T04:45:28.408Z,25.45
2022-12-23T04:47:55.366Z,25.75
2022-12-23T04:50:22.433Z,23.80
2022-12-23T04:52:49.413Z,29.50
2022-12-23T04:55:17.639Z,28.70
2022-12-23T04:57:44.865Z,29.30
2022-12-23T05:00:13.124Z,26.88
2022-12-23T05:02:40.264Z,27.30
2022-12-23T05:05:08.247Z,30.85
2022-12-23T05:07:35.080Z,31.08
2022-12-23T05:10:02.181Z,28.13
2022-12-23T05:12:31.654Z,29.67
2022-12-23T05:14:58.475Z,30.48
2022-12-23T05:17:25.470Z,25.45
2022-12-23T05:19:52.825Z,27.42
2022-12-23T05:22:19.862Z,29.92
2022-12-23T05:24:50.824Z,28.20
2022-12-23T05:27:17.879Z,28.38
2022-12-23T05:29:46.024Z,25.98
2022-12-23T05:32:13.000Z,28.58
2022-12-23T05:34:39.705Z,26.67
2022-12-23T05:37:06.790Z,27.08
2022-12-23T05:39:33.636Z,30.38
2022-12-23T05:42:00.698Z,33.40
2022-12-23T05:44:27.517Z,25.17
2022-12-23T05:46:55.714Z,27.65
2022-12-23T05:49:22.684Z,34.75
2022-12-23T05:51:49.423Z,29.70
2022-12-23T05:54:16.503Z,36.38
2022-12-23T05:56:43.261Z,32.47
2022-12-23T05:59:10.490Z,28.83
2022-12-23T06:01:37.611Z,32.28
2022-12-23T06:04:06.293Z,33.15
2022-12-23T06:06:33.268Z,31.13
2022-12-23T06:09:00.514Z,29.60
2022-12-23T06:11:27.499Z,30.35
2022-12-23T06:13:54.553Z,32.10
2022-12-23T06:16:21.718Z,30.17
2022-12-23T06:18:48.594Z,33.33
2022-12-23T06:21:17.036Z,27.75
2022-12-23T06:23:43.891Z,32.15
2022-12-23T06:26:10.803Z,28.92
2022-12-23T06:28:37.727Z,30.30
2022-12-23T06:31:04.944Z,30.52
2022-12-23T06:33:31.762Z,31.35
2022-12-23T06:35:58.938Z,29.55
2022-12-23T06:38:27.468Z,32.20
2022-12-23T06:40:54.299Z,29.05
2022-12-23T06:43:21.169Z,37.22
2022-12-23T06:45:49.264Z,36.17
2022-12-23T06:48:17.496Z,33.28
2022-12-23T06:50:44.374Z,30.05
2022-12-23T06:53:11.435Z,32.95
2022-12-23T06:55:39.767Z,30.17
2022-12-23T06:58:06.740Z,31.73
2022-12-23T07:00:33.845Z,30.63
2022-12-23T07:03:01.024Z,30.90
2022-12-23T07:05:34.897Z,23.27
2022-12-23T07:08:03.751Z,32.40
2022-12-23T07:10:30.949Z,29.42
2022-12-23T07:12:59.199Z,29.45
2022-12-23T07:15:26.018Z,33.60
2022-12-23T07:17:54.743Z,27.25
2022-12-23T07:20:21.465Z,28.52
2022-12-23T07:22:48.489Z,26.50
2022-12-23T07:25:15.941Z,29.40
2022-12-23T07:27:43.178Z,29.80
2022-12-23T07:30:12.073Z,27.08
2022-12-23T07:32:39.179Z,23.05
2022-12-23T07:35:06.968Z,25.85
2022-12-23T07:37:34.010Z,22.27
2022-12-23T07:40:06.631Z,27.83
2022-12-23T07:42:50.649Z,24.83
2022-12-23T07:45:18.879Z,29.17
2022-12-23T07:47:45.776Z,24.30
2022-12-23T07:50:13.295Z,23.55
2022-12-23T07:52:40.168Z,22.23
2022-12-23T07:55:07.954Z,24.17
2022-12-23T07:58:00.377Z,25.13
2022-12-23T08:00:28.652Z,24.30
2022-12-23T08:02:55.539Z,27.90
2022-12-23T08:05:22.462Z,27.63
2022-12-23T08:07:52.011Z,22.83
2022-12-23T08:10:18.975Z,24.05
2022-12-23T08:12:45.811Z,22.45
2022-12-23T08:15:12.696Z,20.55
2022-12-23T08:17:41.270Z,27.08
2022-12-23T08:20:09.747Z,22.75
2022-12-23T08:22:36.655Z,26.50
2022-12-23T08:25:04.052Z,27.45
2022-12-23T08:27:30.933Z,21.20
2022-12-23T08:29:57.737Z,24.35
2022-12-23T08:32:27.072Z,23.23
2022-12-23T08:34:57.266Z,23.55
2022-12-23T08:37:24.964Z,21.67
2022-12-23T08:39:51.755Z,21.20
2022-12-23T08:42:20.200Z,23.85
2022-12-23T08:44:46.989Z,21.30
2022-12-23T08:47:13.798Z,21.67
2022-12-23T08:49:40.752Z,21.70
2022-12-23T08:52:08.915Z,25.70
2022-12-23T08:54:35.712Z,22.58
2022-12-23T08:57:02.794Z,20.73
2022-12-23T08:59:29.719Z,20.45
2022-12-23T09:01:56.667Z,20.35
2022-12-23T09:04:23.479Z,16.60
2022-12-23T09:06:50.264Z,17.42
2022-12-23T09:09:18.387Z,21.70
2022-12-23T09:11:45.205Z,16.13
2022-12-23T09:14:12.918Z,17.80
2022-12-23T09:16:40.054Z,20.00
2022-12-23T09:19:07.210Z,18.63
2022-12-23T09:21:34.129Z,18.88
2022-12-23T09:24:00.857Z,18.80
2022-12-23T09:26:31.107Z,16.48
2022-12-23T09:28:58.445Z,19.95
2022-12-23T09:31:30.665Z,17.33
2022-12-23T09:34:03.030Z,17.20
2022-12-23T09:36:29.825Z,17.40
2022-12-23T09:38:58.431Z,16.13
2022-12-23T09:41:46.511Z,16.45
2022-12-23T09:44:38.444Z,12.00
2022-12-23T09:47:12.768Z,17.77
2022-12-23T09:49:48.831Z,12.38
2022-12-23T09:52:24.826Z,15.70
2022-12-23T09:54:55.253Z,14.50
2022-12-23T09:57:36.520Z,13.20
2022-12-23T10:00:13.020Z,15.60
2022-12-23T10:03:13.353Z,12.95
2022-12-23T10:05:51.995Z,13.02
2022-12-23T10:08:29.891Z,13.98
2022-12-23T10:11:01.717Z,13.45
2022-12-23T10:13:37.522Z,13.18
2022-12-23T10:16:12.298Z,13.15
2022-12-23T10:18:50.269Z,12.63
2022-12-23T10:21:26.852Z,17.17
2022-12-23T10:23:55.267Z,23.77
2022-12-23T10:26:28.868Z,16.05
2022-12-23T10:29:08.155Z,18.05
2022-12-23T10:31:48.964Z,21.08
2022-12-23T10:34:23.324Z,16.90
2022-12-23T10:37:00.750Z,18.73
2022-12-23T10:39:36.846Z,19.20
2022-12-23T10:42:18.632Z,14.68
2022-12-23T10:45:12.219Z,14.48
2022-12-23T10:48:14.416Z,15.10
2022-12-23T10:51:00.230Z,18.02
2022-12-23T10:53:37.399Z,15.32
2022-12-23T10:56:06.274Z,15.02
2022-12-23T10:58:38.309Z,14.65
2022-12-23T11:01:14.946Z,16.92
2022-12-23T11:03:56.443Z,20.60
2022-12-23T11:06:25.929Z,17.80
2022-12-23T11:08:56.804Z,21.20
2022-12-23T11:11:23.823Z,26.85
2022-12-23T11:13:50.682Z,28.80
2022-12-23T11:16:25.217Z,22.38
2022-12-23T11:18:56.610Z,20.02
2022-12-23T11:21:23.504Z,21.20
2022-12-23T11:24:15.799Z,16.77
2022-12-23T11:26:44.455Z,17.80
2022-12-23T11:29:21.613Z,15.55
2022-12-23T11:31:51.030Z,15.70
2022-12-23T11:34:21.447Z,15.23
2022-12-23T11:36:58.673Z,16.65
2022-12-23T11:39:32.700Z,20.60
2022-12-23T11:42:07.267Z,14.60
2022-12-23T11:44:40.050Z,17.70
2022-12-23T11:47:28.052Z,15.80
2022-12-23T11:49:57.552Z,13.85
2022-12-23T11:52:26.332Z,13.25
2022-12-23T11:54:56.921Z,14.63
2022-12-23T11:57:37.374Z,15.07
2022-12-23T12:00:17.714Z,11.95
2022-12-23T12:02:50.352Z,11.93
2022-12-23T12:05:22.237Z,13.50
2022-12-23T12:07:51.027Z,12.65
2022-12-23T12:10:25.018Z,11.20
2022-12-23T12:12:59.475Z,13.57
2022-12-23T12:15:42.098Z,11.52
2022-12-23T12:18:15.888Z,12.05
2022-12-23T12:20:46.633Z,14.00
2022-12-23T12:23:21.149Z,11.13
2022-12-23T12:25:55.480Z,11.32
2022-12-23T12:28:29.823Z,10.25
2022-12-23T12:31:05.127Z,12.75
2022-12-23T12:33:41.391Z,16.25
2022-12-23T12:36:18.674Z,14.82
2022-12-23T12:38:48.659Z,10.50
2022-12-23T12:41:22.760Z,11.48
2022-12-23T12:44:04.968Z,10.82
2022-12-23T12:46:40.660Z,11.60
2022-12-23T12:49:19.243Z,10.60
2022-12-23T12:51:54.203Z,12.85
2022-12-23T12:54:30.057Z,12.75
2022-12-23T12:56:59.082Z,9.93
2022-12-23T12:59:28.796Z,9.40
2022-12-23T13:02:34.250Z,10.85
2022-12-23T13:05:32.435Z,9.48
2022-12-23T13:08:29.861Z,10.70
2022-12-23T13:11:05.671Z,10.43
2022-12-23T13:13:48.590Z,10.10
2022-12-23T13:16:29.591Z,7.60
2022-12-23T13:19:04.209Z,6.70
2022-12-23T13:21:42.860Z,7.50
2022-12-23T13:24:22.904Z,9.93
2022-12-23T13:27:03.179Z,8.73
2022-12-23T13:30:06.516Z,10.73
2022-12-23T13:33:02.212Z,9.90
2022-12-23T13:35:48.455Z,10.07
2022-12-23T13:38:44.987Z,10.48
2022-12-23T13:41:25.789Z,11.60
2022-12-23T13:43:58.245Z,12.80
2022-12-23T13:46:38.668Z,14.52
2022-12-23T13:49:16.983Z,9.82
2022-12-23T13:51:53.090Z,9.60
2022-12-23T13:54:38.835Z,12.18
2022-12-23T13:57:25.348Z,12.48
2022-12-23T14:00:08.955Z,10.70
2022-12-23T14:02:51.733Z,14.02
2022-12-23T14:05:33.975Z,10.05
2022-12-23T14:08:05.355Z,8.93
2022-12-23T14:10:35.485Z,10.20
2022-12-23T14:13:07.208Z,9.75
2022-12-23T14:16:00.619Z,11.52
2022-12-23T14:19:05.148Z,11.25
2022-12-23T14:21:46.619Z,10.75
2022-12-23T14:24:46.998Z,13.27
2022-12-23T14:27:55.298Z,11.05
2022-12-23T14:30:32.814Z,12.48
2022-12-23T14:33:03.328Z,18.58
2022-12-23T14:35:54.423Z,12.85
2022-12-23T14:38:32.311Z,12.80
2022-12-23T14:41:19.471Z,11.80
2022-12-23T14:43:57.680Z,13.02
2022-12-23T14:46:58.224Z,12.68
2022-12-23T14:49:46.129Z,15.38
2022-12-23T14:52:59.387Z,14.70
2022-12-23T14:55:44.768Z,13.15
2022-12-23T14:59:15.347Z,13.38
2022-12-23T15:01:47.786Z,13.27
2022-12-23T15:04:21.791Z,14.32
2022-12-23T15:06:54.346Z,13.57
2022-12-23T15:09:26.633Z,12.45
2022-12-23T15:14:34.319Z,13.18
2022-12-23T15:17:26.157Z,29.95
2022-12-23T15:19:54.351Z,34.88
2022-12-23T15:22:30.183Z,17.48
2022-12-23T15:24:59.241Z,13.18
2022-12-23T15:27:29.828Z,14.85
2022-12-23T15:29:59.655Z,23.17
2022-12-23T15:32:28.459Z,20.65
2022-12-23T15:35:03.526Z,18.13
2022-12-23T15:37:31.898Z,13.02
2022-12-23T15:40:09.639Z,12.27
2022-12-23T15:42:46.111Z,11.85
2022-12-23T15:45:34.292Z,14.68
2022-12-23T15:48:02.175Z,12.57
2022-12-23T15:50:30.672Z,14.77
2022-12-23T15:53:06.093Z,12.80
2022-12-23T15:55:36.360Z,13.73
2022-12-23T15:58:04.778Z,11.88
2022-12-23T16:00:39.444Z,11.98
2022-12-23T16:03:22.838Z,12.95
2022-12-23T16:05:49.817Z,13.50
2022-12-23T16:08:29.575Z,9.95
2022-12-23T16:11:11.597Z,11.13
2022-12-23T16:13:43.083Z,11.40
2022-12-23T16:16:29.822Z,13.48
2022-12-23T16:18:57.634Z,12.20
2022-12-23T16:21:29.246Z,15.25
2022-12-23T16:23:56.942Z,15.07
2022-12-23T16:26:24.102Z,16.55
2022-12-23T16:28:55.185Z,17.35
2022-12-23T16:31:24.405Z,15.20
2022-12-23T16:33:54.257Z,14.25
2022-12-23T16:36:32.867Z,15.93
2022-12-23T16:39:13.150Z,16.27
2022-12-23T16:41:40.158Z,15.80
2022-12-23T16:44:06.936Z,13.40
2022-12-23T16:46:39.733Z,13.82
2022-12-23T16:49:11.896Z,11.90
2022-12-23T16:51:40.746Z,13.18
2022-12-23T16:54:14.303Z,12.27
2022-12-23T16:56:41.799Z,12.70
2022-12-23T16:59:10.019Z,13.25
2022-12-23T17:01:42.154Z,14.25
2022-12-23T17:04:09.245Z,12.77
2022-12-23T17:06:38.260Z,14.93
2022-12-23T17:09:05.892Z,14.23
2022-12-23T17:11:39.853Z,13.55
2022-12-23T17:14:16.975Z,13.70
2022-12-23T17:16:46.786Z,14.07
2022-12-23T17:19:13.942Z,14.77
2022-12-23T17:21:44.311Z,18.70
2022-12-23T17:24:16.493Z,14.45
2022-12-23T17:29:12.261Z,19.60
2022-12-23T17:31:41.141Z,15.60
2022-12-23T17:34:16.068Z,15.27
2022-12-23T17:36:49.627Z,12.07
2022-12-23T17:39:17.552Z,13.77
2022-12-23T17:41:44.531Z,13.63
2022-12-23T17:44:15.352Z,13.45
2022-12-23T17:46:42.641Z,14.18
2022-12-23T17:49:11.317Z,14.52
2022-12-23T17:51:40.207Z,11.00
2022-12-23T17:54:07.162Z,13.30
2022-12-23T17:56:34.216Z,12.73
2022-12-23T17:59:01.067Z,13.02
2022-12-23T18:01:31.404Z,9.98
2022-12-23T18:04:00.228Z,10.98
2022-12-23T18:06:29.201Z,10.13
2022-12-23T18:08:56.753Z,12.13
2022-12-23T18:11:32.295Z,13.45
2022-12-23T18:14:01.197Z,18.17
2022-12-23T18:16:28.460Z,10.70
2022-12-23T18:18:56.580Z,13.18
2022-12-23T18:21:26.913Z,11.52
2022-12-23T18:23:59.689Z,13.63
2022-12-23T18:26:26.680Z,12.43
2022-12-23T18:28:54.621Z,12.70
2022-12-23T18:31:24.019Z,12.00
2022-12-23T18:33:51.688Z,12.35
2022-12-23T18:36:25.908Z,12.07
2022-12-23T18:38:55.059Z,14.77
2022-12-23T18:41:23.494Z,12.15
2022-12-23T18:43:51.476Z,10.98
2022-12-23T18:46:18.613Z,11.85
2022-12-23T18:48:46.016Z,10.07
2022-12-23T18:51:18.850Z,10.90
2022-12-23T18:53:46.459Z,12.15
2022-12-23T18:56:16.253Z,14.40
2022-12-23T18:58:43.444Z,9.63
2022-12-23T19:01:12.231Z,8.65
2022-12-23T19:03:39.841Z,10.77
2022-12-23T19:06:09.789Z,10.75
2022-12-23T19:08:37.934Z,8.27
2022-12-23T19:11:11.183Z,11.23
2022-12-23T19:13:39.783Z,10.82
2022-12-23T19:16:07.647Z,9.50
2022-12-23T19:18:35.014Z,9.25
2022-12-23T19:21:04.748Z,11.27
2022-12-23T19:23:31.877Z,7.35
2022-12-23T19:25:58.821Z,8.77
2022-12-23T19:28:25.693Z,8.02
2022-12-23T19:30:54.193Z,10.00
2022-12-23T19:33:20.939Z,11.90
2022-12-23T19:35:47.974Z,11.90
2022-12-23T19:38:15.261Z,10.98
2022-12-23T19:40:42.081Z,9.18
2022-12-23T19:43:09.248Z,8.07
2022-12-23T19:45:36.168Z,7.65
2022-12-23T19:48:05.346Z,8.45
2022-12-23T19:50:32.131Z,7.18
2022-12-23T19:52:58.993Z,8.80
2022-12-23T19:55:25.783Z,9.45
2022-12-23T19:57:55.495Z,8.50
2022-12-23T20:00:22.670Z,9.90
2022-12-23T20:02:55.129Z,10.20
2022-12-23T20:05:26.782Z,6.28
2022-12-23T20:07:53.817Z,7.28
2022-12-23T20:10:20.731Z,7.15
2022-12-23T20:12:47.774Z,6.43
2022-12-23T20:15:14.631Z,9.57
2022-12-23T20:17:41.392Z,8.15
2022-12-23T20:20:09.733Z,6.47
2022-12-23T20:22:38.050Z,6.97
2022-12-23T20:25:06.255Z,6.50
2022-12-23T20:27:33.521Z,4.60
2022-12-23T20:30:00.544Z,6.60
2022-12-23T20:32:27.779Z,7.13
2022-12-23T20:34:54.649Z,9.88
2022-12-23T20:37:21.503Z,7.93
2022-12-23T20:39:50.176Z,8.05
2022-12-23T20:42:17.090Z,5.32
2022-12-23T20:44:43.847Z,8.90
2022-12-23T20:47:10.922Z,8.70
2022-12-23T20:49:38.296Z,9.20
2022-12-23T20:52:05.353Z,8.48
2022-12-23T20:54:33.984Z,8.25
2022-12-23T20:57:03.267Z,7.72
2022-12-23T20:59:30.462Z,8.15
2022-12-23T21:01:57.375Z,9.02
2022-12-23T21:04:24.623Z,5.82
2022-12-23T21:06:51.716Z,12.18
2022-12-23T21:09:18.560Z,8.05
2022-12-23T21:11:48.631Z,9.88
2022-12-23T21:14:16.844Z,11.25
2022-12-23T21:16:44.270Z,7.72
2022-12-23T21:19:17.443Z,7.68
2022-12-23T21:21:45.031Z,11.02
2022-12-23T21:24:12.053Z,6.85
2022-12-23T21:26:40.375Z,6.18
2022-12-23T21:29:10.586Z,8.75
2022-12-23T21:31:40.920Z,9.55
2022-12-23T21:34:09.154Z,10.88
2022-12-23T21:36:38.436Z,6.13
2022-12-23T21:39:06.795Z,9.68
2022-12-23T21:41:38.078Z,11.88
2022-12-23T21:44:05.668Z,8.07
2022-12-23T21:46:33.014Z,12.68
2022-12-23T21:49:02.002Z,9.50
2022-12-23T21:51:39.522Z,9.93
2022-12-23T21:54:09.686Z,8.65
2022-12-23T21:56:37.162Z,7.25
2022-12-23T21:59:08.399Z,11.70
2022-12-23T22:01:35.487Z,7.18
2022-12-23T22:04:04.262Z,14.68
2022-12-23T22:06:34.158Z,11.65
2022-12-23T22:09:02.456Z,7.50
2022-12-23T22:11:32.514Z,7.40
2022-12-23T22:14:00.963Z,6.88
2022-12-23T22:16:30.089Z,6.50
2022-12-23T22:18:59.251Z,10.13
2022-12-23T22:21:30.661Z,13.50
2022-12-23T22:23:58.482Z,14.80
2022-12-23T22:26:28.004Z,9.32
2022-12-23T22:28:57.869Z,8.15
2022-12-23T22:31:33.951Z,7.63
2022-12-23T22:34:01.527Z,11.45
2022-12-23T22:36:30.481Z,11.15
2022-12-23T22:39:00.595Z,9.48
2022-12-23T22:41:29.675Z,7.18
2022-12-23T22:43:57.615Z,11.20
2022-12-23T22:46:26.120Z,11.10
2022-12-23T22:48:53.842Z,11.15
2022-12-23T22:51:24.731Z,11.45
2022-12-23T22:53:53.294Z,11.75
2022-12-23T22:56:22.017Z,10.93
2022-12-23T22:58:49.972Z,10.95
2022-12-23T23:01:22.360Z,10.02
2022-12-23T23:03:50.045Z,9.90
2022-12-23T23:06:18.682Z,12.68
2022-12-23T23:08:45.617Z,7.05
2022-12-23T23:11:14.161Z,9.73
2022-12-23T23:13:40.994Z,9.45
2022-12-23T23:16:08.234Z,7.78
2022-12-23T23:18:35.237Z,7.82
2022-12-23T23:21:01.987Z,10.77
2022-12-23T23:23:28.799Z,10.20
2022-12-23T23:25:55.647Z,8.95
2022-12-23T23:28:23.956Z,13.57
2022-12-23T23:31:03.801Z,9.98
2022-12-23T23:33:38.411Z,8.23
2022-12-23T23:36:06.608Z,9.63
2022-12-23T23:38:33.490Z,8.10
2022-12-23T23:41:00.278Z,10.95
2022-12-23T23:43:28.440Z,11.70
2022-12-23T23:45:55.453Z,10.48
2022-12-23T23:48:22.346Z,14.43
2022-12-23T23:50:49.097Z,12.05
2022-12-23T23:53:16.509Z,10.60
2022-12-23T23:55:43.788Z,9.20
2022-12-23T23:58:11.931Z,9.50
